Time;durP1;ratioP1;P1;durP2;ratioP2;P2;SDS_P1;SDS_P2;PMS_P1;PMS_P2;Temp;Humidity;BMP_temperature;BMP_pressure;BME280_temperature;BME280_humidity;BME280_pressure;Samples;Min_cycle;Max_cycle;Signal;HPM_P1;HPM_P2
2021/07/25 00:00:49;;;;;;;;;;;18.30;99.90;;;;;;5106844;27;19919;-82
2021/07/25 00:03:14;;;;;;;;;;;18.30;99.90;;;;;;5112142;28;19916;-82
2021/07/25 00:05:43;;;;;;;;;;;18.20;99.90;;;;;;5093620;28;19915;-81
2021/07/25 00:08:12;;;;;;;;;;;18.20;99.90;;;;;;5076320;28;19942;-81
2021/07/25 00:10:39;;;;;;;;;;;18.20;99.90;;;;;;5074919;28;19920;-83
2021/07/25 00:13:04;;;;;;;;;;;18.20;99.90;;;;;;5112206;28;19915;-81
2021/07/25 00:15:30;;;;;;;;;;;18.20;99.90;;;;;;5093537;28;20383;-81
2021/07/25 00:17:59;;;;;;;;;;;18.20;99.90;;;;;;5093364;28;19926;-82
2021/07/25 00:20:25;;;;;;;;;;;18.20;99.90;;;;;;5109699;28;20343;-82
2021/07/25 00:22:50;;;;;;;;;;;18.20;99.90;;;;;;5112362;28;19941;-81
2021/07/25 00:25:19;;;;;;;;;;;18.20;99.90;;;;;;5094475;28;19919;-81
2021/07/25 00:27:46;;;;;;;;;;;18.10;99.90;;;;;;5112153;28;19915;-81
2021/07/25 00:30:12;;;;;;;;;;;18.10;99.90;;;;;;5111454;28;19926;-82
2021/07/25 00:32:38;;;;;;;;;;;18.10;99.90;;;;;;5099469;28;19968;-81
2021/07/25 00:35:04;;;;;;;;;;;18.10;99.90;;;;;;5112261;28;19943;-82
2021/07/25 00:37:30;;;;;;;;;;;18.10;99.90;;;;;;5093708;28;19927;-82
2021/07/25 00:39:56;;;;;;;;;;;18.10;99.90;;;;;;5091023;28;20009;-82
2021/07/25 00:42:22;;;;;;;;;;;18.10;99.90;;;;;;5110130;28;19965;-81
2021/07/25 00:44:49;;;;;;;;;;;18.20;99.90;;;;;;5074742;28;19916;-82
2021/07/25 00:47:17;;;;;;;;;;;18.20;99.90;;;;;;5075395;28;19939;-81
2021/07/25 00:49:43;;;;;;;;;;;18.20;99.90;;;;;;5105284;28;19955;-81
2021/07/25 00:52:09;;;;;;;;;;;18.20;99.90;;;;;;5111320;28;19949;-81
2021/07/25 00:54:36;;;;;;;;;;;18.20;99.90;;;;;;5090552;28;19939;-81
2021/07/25 00:57:02;;;;;;;;;;;18.20;99.90;;;;;;5112757;28;19916;-82
2021/07/25 00:59:28;;;;;;;;;;;18.30;99.90;;;;;;5096417;28;19916;-81
2021/07/25 01:01:54;;;;;;;;;;;18.20;99.90;;;;;;5083472;28;20384;-81
2021/07/25 01:04:22;;;;;;;;;;;18.20;99.90;;;;;;5092002;28;19962;-81
2021/07/25 01:07:01;;;;;;;;;;;18.20;99.90;;;;;;5101643;28;19958;-81
2021/07/25 01:09:45;;;;;;;;;;;18.20;99.90;;;;;;5080823;28;19975;-82
2021/07/25 01:12:16;;;;;;;;;;;18.30;99.90;;;;;;5074651;28;19924;-82
2021/07/25 01:14:43;;;;;;;;;;;18.20;99.90;;;;;;5098891;28;19965;-81
2021/07/25 01:17:26;;;;;;;;;;;18.20;99.90;;;;;;5080511;28;20448;-82
2021/07/25 01:19:53;;;;;;;;;;;18.20;99.90;;;;;;5092759;28;19924;-82
2021/07/25 01:22:18;;;;;;;;;;;18.20;99.90;;;;;;5078683;28;19924;-82
2021/07/25 01:24:44;;;;;;;;;;;18.20;99.90;;;;;;5074364;28;20011;-82
2021/07/25 01:27:12;;;;;;;;;;;18.30;99.90;;;;;;5078605;28;20299;-82
2021/07/25 01:29:42;;;;;;;;;;;18.30;99.90;;;;;;5084164;28;20015;-82
2021/07/25 01:32:08;;;;;;;;;;;18.30;99.90;;;;;;5103745;28;19916;-81
2021/07/25 01:34:34;;;;;;;;;;;18.30;99.90;;;;;;5084290;28;19919;-81
2021/07/25 01:37:01;;;;;;;;;;;18.30;99.90;;;;;;5089525;28;19916;-81
2021/07/25 01:39:27;;;;;;;;;;;18.30;99.90;;;;;;5078684;28;19966;-81
2021/07/25 01:41:52;;;;;;;;;;;18.30;99.90;;;;;;5081721;28;19963;-82
2021/07/25 01:44:18;;;;;;;;;;;18.30;99.90;;;;;;5111934;28;20175;-82
2021/07/25 01:46:44;;;;;;;;;;;18.30;99.90;;;;;;5098103;28;20254;-82
2021/07/25 01:49:10;;;;;;;;;;;18.30;99.90;;;;;;5091888;28;19923;-83
2021/07/25 01:51:36;;;;;;;;;;;18.30;99.90;;;;;;5107105;28;19927;-82
2021/07/25 01:54:02;;;;;;;;;;;18.40;99.90;;;;;;5091254;28;19976;-82
2021/07/25 01:56:28;;;;;;;;;;;18.30;99.90;;;;;;5091876;28;20290;-83
2021/07/25 01:58:56;;;;;;;;;;;18.30;99.90;;;;;;5089042;28;19924;-83
2021/07/25 02:01:22;;;;;;;;;;;18.30;99.90;;;;;;5098293;28;19966;-83
2021/07/25 02:03:47;;;;;;;;;;;18.40;99.90;;;;;;5110123;28;19959;-83
2021/07/25 02:06:13;;;;;;;;;;;18.40;99.90;;;;;;5064178;28;19920;-83
2021/07/25 02:08:40;;;;;;;;;;;18.40;99.90;;;;;;5101114;28;19920;-84
2021/07/25 02:11:08;;;;;;;;;;;18.40;99.90;;;;;;5071027;28;19977;-83
2021/07/25 02:13:33;;;;;;;;;;;18.40;99.90;;;;;;5068963;28;19916;-83
2021/07/25 02:15:59;;;;;;;;;;;18.40;99.90;;;;;;5075385;28;19923;-83
2021/07/25 02:18:27;;;;;;;;;;;18.30;99.90;;;;;;5089654;28;19984;-83
2021/07/25 02:20:57;;;;;;;;;;;18.30;99.90;;;;;;5079759;28;20061;-83
2021/07/25 02:23:32;;;;;;;;;;;18.40;99.90;;;;;;5091556;28;19917;-84
2021/07/25 02:25:58;;;;;;;;;;;18.30;99.90;;;;;;5093451;28;19965;-84
2021/07/25 02:28:25;;;;;;;;;;;18.30;99.90;;;;;;5076077;28;19915;-83
2021/07/25 02:30:50;;;;;;;;;;;18.30;99.90;;;;;;5115021;28;19915;-86
2021/07/25 02:33:16;;;;;;;;;;;18.30;99.90;;;;;;5080270;28;19920;-86
2021/07/25 02:35:43;;;;;;;;;;;18.30;99.90;;;;;;5114426;28;19923;-89
2021/07/25 02:38:12;;;;;;;;;;;18.30;99.90;;;;;;5062964;28;19942;-85
2021/07/25 02:40:45;;;;;;;;;;;18.30;99.90;;;;;;5076328;28;19927;-84
2021/07/25 02:43:11;;;;;;;;;;;18.30;99.90;;;;;;5087901;28;20384;-85
2021/07/25 02:45:37;;;;;;;;;;;18.30;99.90;;;;;;5076093;28;20368;-84
2021/07/25 02:48:07;;;;;;;;;;;18.30;99.90;;;;;;5097350;28;19920;-87
2021/07/25 02:50:34;;;;;;;;;;;18.30;99.90;;;;;;5079145;28;20384;-86
2021/07/25 02:53:00;;;;;;;;;;;18.30;99.90;;;;;;5078244;28;19947;-85
2021/07/25 02:55:26;;;;;;;;;;;18.20;99.90;;;;;;5097432;28;19923;-87
2021/07/25 02:57:52;;;;;;;;;;;18.30;99.90;;;;;;5095535;28;20056;-82
2021/07/25 03:00:18;;;;;;;;;;;18.20;99.90;;;;;;5095223;28;19915;-85
2021/07/25 03:02:44;;;;;;;;;;;18.30;99.90;;;;;;5094608;28;19927;-86
2021/07/25 03:05:10;;;;;;;;;;;18.20;99.90;;;;;;5087360;28;19916;-81
2021/07/25 03:07:36;;;;;;;;;;;18.20;99.90;;;;;;5090883;28;20008;-84
2021/07/25 03:10:02;;;;;;;;;;;18.20;99.90;;;;;;5114443;28;19919;-86
2021/07/25 03:12:28;;;;;;;;;;;18.20;99.90;;;;;;5108956;28;19920;-79
2021/07/25 03:14:54;;;;;;;;;;;18.30;99.90;;;;;;5095159;28;20010;-82
2021/07/25 03:17:19;;;;;;;;;;;18.30;99.90;;;;;;5098981;28;20377;-82
2021/07/25 03:19:46;;;;;;;;;;;18.30;99.90;;;;;;5095650;28;19916;-84
2021/07/25 03:22:13;;;;;;;;;;;18.30;99.90;;;;;;5067081;28;20006;-82
2021/07/25 03:24:39;;;;;;;;;;;18.20;99.90;;;;;;5112008;28;20010;-81
2021/07/25 03:27:05;;;;;;;;;;;18.10;99.90;;;;;;5096140;28;19941;-83
2021/07/25 03:29:31;;;;;;;;;;;18.00;99.90;;;;;;5114025;28;20353;-83
2021/07/25 03:31:56;;;;;;;;;;;18.00;99.90;;;;;;5077907;28;19934;-82
2021/07/25 03:34:22;;;;;;;;;;;18.00;99.90;;;;;;5086869;28;20365;-86
2021/07/25 03:36:48;;;;;;;;;;;17.90;99.90;;;;;;5078334;28;20319;-81
2021/07/25 03:39:15;;;;;;;;;;;17.90;99.90;;;;;;5113575;28;20378;-85
2021/07/25 03:41:41;;;;;;;;;;;17.80;99.90;;;;;;5099843;28;19967;-81
2021/07/25 03:44:06;;;;;;;;;;;17.80;99.90;;;;;;5077134;28;19919;-84
2021/07/25 03:46:32;;;;;;;;;;;17.80;99.90;;;;;;5095433;28;19923;-84
2021/07/25 03:48:58;;;;;;;;;;;17.80;99.90;;;;;;5094804;28;19916;-82
2021/07/25 03:51:25;;;;;;;;;;;17.70;99.90;;;;;;5113665;28;19919;-79
2021/07/25 03:53:51;;;;;;;;;;;17.60;99.90;;;;;;5104679;28;19923;-84
2021/07/25 03:56:20;;;;;;;;;;;17.50;99.90;;;;;;5077719;28;19923;-81
2021/07/25 03:58:46;;;;;;;;;;;17.50;99.90;;;;;;5113202;28;19916;-84
2021/07/25 04:01:11;;;;;;;;;;;17.30;99.90;;;;;;5093683;28;19916;-84
2021/07/25 04:03:37;;;;;;;;;;;17.30;99.90;;;;;;5093121;28;20010;-84
2021/07/25 04:06:03;;;;;;;;;;;17.20;99.90;;;;;;5112756;28;19915;-85
2021/07/25 04:08:30;;;;;;;;;;;17.20;99.90;;;;;;5112644;28;19961;-84
2021/07/25 04:10:56;;;;;;;;;;;17.20;99.90;;;;;;5093644;28;19923;-79
2021/07/25 04:13:21;;;;;;;;;;;17.10;99.90;;;;;;5094175;28;20296;-82
2021/07/25 04:15:47;;;;;;;;;;;17.20;99.90;;;;;;5110951;28;19915;-84
2021/07/25 04:18:16;;;;;;;;;;;17.10;99.90;;;;;;5112194;28;20368;-82
2021/07/25 04:20:42;;;;;;;;;;;17.10;99.90;;;;;;5111980;28;19951;-81
2021/07/25 04:23:09;;;;;;;;;;;17.10;99.90;;;;;;5112731;28;19923;-81
2021/07/25 04:25:35;;;;;;;;;;;17.10;99.90;;;;;;5090080;28;20421;-81
2021/07/25 04:28:03;;;;;;;;;;;17.10;99.90;;;;;;5094934;28;20319;-82
2021/07/25 04:30:29;;;;;;;;;;;17.10;99.90;;;;;;5108095;28;19931;-82
2021/07/25 04:32:56;;;;;;;;;;;17.10;99.90;;;;;;5102856;28;20377;-81
2021/07/25 04:35:22;;;;;;;;;;;17.10;99.90;;;;;;5111228;28;19930;-83
2021/07/25 04:37:49;;;;;;;;;;;17.10;99.90;;;;;;5083048;28;19916;-83
2021/07/25 04:40:15;;;;;;;;;;;17.10;99.90;;;;;;5109350;28;19922;-81
2021/07/25 04:42:46;;;;;;;;;;;17.20;99.90;;;;;;5093526;28;19943;-82
2021/07/25 04:45:14;;;;;;;;;;;17.20;99.90;;;;;;5111218;28;19965;-83
2021/07/25 04:47:53;;;;;;;;;;;17.20;99.90;;;;;;5111542;28;20029;-81
2021/07/25 04:50:21;;;;;;;;;;;17.20;99.90;;;;;;5111151;28;19923;-81
2021/07/25 04:52:51;;;;;;;;;;;17.20;99.90;;;;;;5111073;28;19981;-81
2021/07/25 04:55:19;;;;;;;;;;;17.20;99.90;;;;;;5100811;28;19915;-85
2021/07/25 04:57:45;;;;;;;;;;;17.30;99.90;;;;;;5078958;28;19923;-79
2021/07/25 05:00:13;;;;;;;;;;;17.30;99.90;;;;;;5100068;28;20302;-84
2021/07/25 05:02:40;;;;;;;;;;;17.40;99.90;;;;;;5110973;28;20052;-80
2021/07/25 05:05:06;;;;;;;;;;;17.40;99.90;;;;;;5112534;28;19999;-82
2021/07/25 05:07:34;;;;;;;;;;;17.40;99.90;;;;;;5092925;28;20437;-82
2021/07/25 05:10:00;;;;;;;;;;;17.50;99.90;;;;;;5082496;28;19916;-81
2021/07/25 05:12:38;;;;;;;;;;;17.60;99.90;;;;;;5109824;28;19927;-83
2021/07/25 05:15:05;;;;;;;;;;;17.60;99.90;;;;;;5085094;28;19916;-80
2021/07/25 05:17:43;;;;;;;;;;;17.60;99.90;;;;;;5115906;28;20288;-81
2021/07/25 05:20:15;;;;;;;;;;;17.70;99.90;;;;;;5112737;28;19926;-81
2021/07/25 05:22:40;;;;;;;;;;;17.90;99.90;;;;;;5110215;28;20044;-87
2021/07/25 05:25:07;;;;;;;;;;;17.90;99.90;;;;;;5111732;28;20014;-84
2021/07/25 05:27:53;;;;;;;;;;;17.90;99.90;;;;;;5112421;28;19998;-83
2021/07/25 05:30:22;;;;;;;;;;;17.90;99.90;;;;;;5091267;28;20477;-83
2021/07/25 05:32:48;;;;;;;;;;;17.80;99.90;;;;;;5102272;28;19919;-84
2021/07/25 05:35:15;;;;;;;;;;;17.80;99.90;;;;;;5093362;28;20254;-81
2021/07/25 05:37:41;;;;;;;;;;;17.80;99.90;;;;;;5094079;28;19955;-80
2021/07/25 05:40:07;;;;;;;;;;;17.80;99.90;;;;;;5107157;28;19923;-81
2021/07/25 05:42:33;;;;;;;;;;;17.90;99.90;;;;;;5076099;28;19916;-81
2021/07/25 05:44:59;;;;;;;;;;;17.80;99.90;;;;;;5107894;28;19920;-84
2021/07/25 05:47:24;;;;;;;;;;;17.70;99.90;;;;;;5094997;28;20349;-80
2021/07/25 05:49:50;;;;;;;;;;;17.80;99.90;;;;;;5095706;28;20006;-80
2021/07/25 05:52:20;;;;;;;;;;;17.80;99.90;;;;;;5089079;28;19920;-81
2021/07/25 05:54:45;;;;;;;;;;;17.80;99.90;;;;;;5094301;28;20006;-82
2021/07/25 05:57:11;;;;;;;;;;;17.90;99.90;;;;;;5116367;28;19916;-86
2021/07/25 05:59:36;;;;;;;;;;;18.00;99.90;;;;;;5096795;28;20361;-82
2021/07/25 06:02:03;;;;;;;;;;;18.00;99.90;;;;;;5114707;28;20387;-86
2021/07/25 06:04:29;;;;;;;;;;;18.00;99.90;;;;;;5115381;28;19923;-84
2021/07/25 06:06:56;;;;;;;;;;;18.10;99.90;;;;;;5116574;28;19998;-83
2021/07/25 06:09:22;;;;;;;;;;;18.10;99.90;;;;;;5079101;28;20625;-79
2021/07/25 06:11:48;;;;;;;;;;;18.10;99.90;;;;;;5080273;28;19924;-83
2021/07/25 06:14:14;;;;;;;;;;;18.10;99.90;;;;;;5113798;28;20042;-79
2021/07/25 06:16:39;;;;;;;;;;;18.30;99.90;;;;;;5104298;28;19988;-79
2021/07/25 06:19:05;;;;;;;;;;;18.40;99.90;;;;;;5091958;28;19922;-84
2021/07/25 06:21:30;;;;;;;;;;;18.50;99.90;;;;;;5107237;28;19915;-83
2021/07/25 06:23:56;;;;;;;;;;;18.60;99.90;;;;;;5111042;28;19924;-81
2021/07/25 06:26:23;;;;;;;;;;;18.80;99.90;;;;;;5095771;28;19942;-81
2021/07/25 06:28:49;;;;;;;;;;;18.80;99.90;;;;;;5110383;28;19920;-81
2021/07/25 06:31:15;;;;;;;;;;;18.80;99.90;;;;;;5114878;28;20327;-81
2021/07/25 06:33:41;;;;;;;;;;;18.90;99.90;;;;;;5100497;28;19928;-83
2021/07/25 06:36:12;;;;;;;;;;;18.90;99.90;;;;;;5114585;28;19953;-81
2021/07/25 06:38:39;;;;;;;;;;;18.90;99.90;;;;;;5115034;28;19922;-84
2021/07/25 06:41:10;;;;;;;;;;;19.00;99.90;;;;;;5114696;28;19945;-82
2021/07/25 06:43:36;;;;;;;;;;;19.00;99.90;;;;;;5089281;28;19924;-79
2021/07/25 06:46:02;;;;;;;;;;;19.00;99.90;;;;;;5095374;28;19916;-80
2021/07/25 06:48:28;;;;;;;;;;;19.10;99.90;;;;;;5098474;28;19916;-83
2021/07/25 06:50:58;;;;;;;;;;;19.10;99.90;;;;;;5114404;28;19919;-83
2021/07/25 06:53:25;;;;;;;;;;;19.10;99.90;;;;;;5109140;28;19985;-82
2021/07/25 06:55:53;;;;;;;;;;;19.00;99.90;;;;;;5095083;28;19933;-82
2021/07/25 06:58:18;;;;;;;;;;;19.00;99.90;;;;;;5101593;28;19923;-83
2021/07/25 07:00:44;;;;;;;;;;;18.90;99.90;;;;;;5103046;28;19919;-83
2021/07/25 07:03:10;;;;;;;;;;;19.00;99.90;;;;;;5112688;28;20379;-83
2021/07/25 07:05:35;;;;;;;;;;;19.00;99.90;;;;;;5096425;28;19949;-80
2021/07/25 07:08:05;;;;;;;;;;;19.00;99.90;;;;;;5113951;28;19915;-81
2021/07/25 07:10:32;;;;;;;;;;;19.10;99.90;;;;;;5113604;28;19927;-81
2021/07/25 07:12:59;;;;;;;;;;;19.00;99.90;;;;;;5113509;28;20392;-81
2021/07/25 07:15:27;;;;;;;;;;;19.00;99.90;;;;;;5101460;28;19916;-83
2021/07/25 07:17:54;;;;;;;;;;;19.00;99.90;;;;;;5093674;28;19920;-80
2021/07/25 07:20:20;;;;;;;;;;;18.90;99.90;;;;;;5107101;28;19919;-82
2021/07/25 07:22:53;;;;;;;;;;;19.00;99.90;;;;;;5096204;28;20316;-80
2021/07/25 07:25:19;;;;;;;;;;;19.00;99.90;;;;;;5118275;28;19991;-80
2021/07/25 07:27:48;;;;;;;;;;;19.10;99.90;;;;;;5105151;28;19920;-82
2021/07/25 07:30:14;;;;;;;;;;;19.40;99.90;;;;;;5098942;28;20323;-81
2021/07/25 07:32:39;;;;;;;;;;;19.60;99.90;;;;;;5113045;28;19915;-83
2021/07/25 07:35:05;;;;;;;;;;;19.80;99.90;;;;;;5094320;28;20692;-81
2021/07/25 07:37:31;;;;;;;;;;;20.10;99.90;;;;;;5088480;28;19916;-81
2021/07/25 07:39:56;;;;;;;;;;;20.30;99.90;;;;;;5106684;28;19920;-80
2021/07/25 07:42:22;;;;;;;;;;;20.50;99.90;;;;;;5114145;28;20010;-82
2021/07/25 07:44:48;;;;;;;;;;;20.40;99.90;;;;;;5081510;28;19966;-82
2021/07/25 07:47:14;;;;;;;;;;;20.50;99.90;;;;;;5087601;28;20350;-80
2021/07/25 07:49:40;;;;;;;;;;;20.50;99.90;;;;;;5077485;28;19929;-82
2021/07/25 07:52:06;;;;;;;;;;;20.50;99.90;;;;;;5095090;28;19923;-82
2021/07/25 07:54:31;;;;;;;;;;;20.50;99.90;;;;;;5100018;28;19916;-83
2021/07/25 07:56:57;;;;;;;;;;;20.60;99.90;;;;;;5085933;28;19927;-82
2021/07/25 07:59:23;;;;;;;;;;;20.70;99.90;;;;;;5107480;28;19996;-82
2021/07/25 08:01:48;;;;;;;;;;;20.90;99.90;;;;;;5100708;28;19920;-80
2021/07/25 08:04:14;;;;;;;;;;;20.90;99.90;;;;;;5112381;28;19962;-81
2021/07/25 08:06:40;;;;;;;;;;;21.10;99.90;;;;;;5094572;28;19922;-80
2021/07/25 08:09:05;;;;;;;;;;;21.30;99.90;;;;;;5111057;28;19950;-81
2021/07/25 08:11:31;;;;;;;;;;;21.50;99.90;;;;;;5116847;27;19919;-81
2021/07/25 08:13:57;;;;;;;;;;;21.70;99.90;;;;;;5098164;28;19916;-83
2021/07/25 08:16:22;;;;;;;;;;;21.80;99.90;;;;;;5094791;28;19916;-81
2021/07/25 08:18:48;;;;;;;;;;;21.80;99.90;;;;;;5094354;28;19916;-80
2021/07/25 08:21:14;;;;;;;;;;;21.90;99.90;;;;;;5100800;28;19915;-81
2021/07/25 08:23:42;;;;;;;;;;;21.80;99.90;;;;;;5113214;28;19919;-83
2021/07/25 08:26:08;;;;;;;;;;;21.70;99.90;;;;;;5112732;28;19925;-80
2021/07/25 08:28:35;;;;;;;;;;;21.50;99.90;;;;;;5095475;28;20266;-83
2021/07/25 08:31:01;;;;;;;;;;;21.50;99.90;;;;;;5105531;28;19923;-82
2021/07/25 08:33:27;;;;;;;;;;;21.50;99.90;;;;;;5088111;28;20014;-81
2021/07/25 08:35:53;;;;;;;;;;;21.50;99.90;;;;;;5100094;28;20373;-80
2021/07/25 08:38:18;;;;;;;;;;;21.40;99.90;;;;;;5112900;28;19927;-80
2021/07/25 08:40:58;;;;;;;;;;;21.60;99.90;;;;;;5112654;28;19919;-83
2021/07/25 08:43:29;;;;;;;;;;;21.60;99.90;;;;;;5111660;28;19924;-82
2021/07/25 08:45:55;;;;;;;;;;;21.60;99.90;;;;;;5111942;28;19915;-81
2021/07/25 08:48:23;;;;;;;;;;;21.70;99.90;;;;;;5093842;28;19922;-82
2021/07/25 08:50:57;;;;;;;;;;;21.80;99.90;;;;;;5101528;28;19927;-81
2021/07/25 08:53:26;;;;;;;;;;;22.00;99.90;;;;;;5104695;28;20356;-81
2021/07/25 08:55:52;;;;;;;;;;;22.10;99.90;;;;;;5092567;28;19916;-82
2021/07/25 08:58:21;;;;;;;;;;;21.90;99.90;;;;;;5107107;28;20018;-81
2021/07/25 09:00:49;;;;;;;;;;;21.80;99.90;;;;;;5094453;28;19973;-83
2021/07/25 09:03:15;;;;;;;;;;;21.80;99.90;;;;;;5105724;28;19920;-82
2021/07/25 09:05:41;;;;;;;;;;;21.80;99.90;;;;;;5086329;28;20376;-81
2021/07/25 09:08:08;;;;;;;;;;;21.80;99.90;;;;;;5105167;28;19931;-80
2021/07/25 09:10:34;;;;;;;;;;;21.90;99.90;;;;;;5104552;28;19916;-80
2021/07/25 09:13:00;;;;;;;;;;;22.10;99.90;;;;;;5112220;28;20380;-81
2021/07/25 09:15:28;;;;;;;;;;;22.20;99.90;;;;;;5110994;28;19915;-82
2021/07/25 09:17:55;;;;;;;;;;;22.20;99.90;;;;;;5099586;28;20281;-82
2021/07/25 09:20:31;;;;;;;;;;;22.30;99.90;;;;;;5112216;28;19930;-82
2021/07/25 09:23:08;;;;;;;;;;;22.40;99.90;;;;;;5104301;28;19926;-82
2021/07/25 09:25:39;;;;;;;;;;;22.50;99.90;;;;;;5094368;28;19919;-80
2021/07/25 09:28:12;;;;;;;;;;;22.60;99.90;;;;;;5107626;28;19947;-81
2021/07/25 09:30:38;;;;;;;;;;;22.50;99.90;;;;;;5085193;28;19927;-82
2021/07/25 09:33:24;;;;;;;;;;;22.60;99.90;;;;;;5119137;28;19915;-81
2021/07/25 09:35:50;;;;;;;;;;;22.70;99.90;;;;;;5115799;28;19923;-80
2021/07/25 09:38:17;;;;;;;;;;;22.70;99.90;;;;;;5115972;28;20315;-80
2021/07/25 09:40:44;;;;;;;;;;;22.60;99.90;;;;;;5108081;28;20362;-81
2021/07/25 09:43:10;;;;;;;;;;;22.60;99.90;;;;;;5109111;28;19920;-82
2021/07/25 09:45:55;;;;;;;;;;;22.60;99.90;;;;;;5097099;28;19916;-81
2021/07/25 09:48:33;;;;;;;;;;;22.50;99.90;;;;;;5102859;28;19915;-80
2021/07/25 09:51:00;;;;;;;;;;;22.40;99.90;;;;;;5115794;28;19926;-80
2021/07/25 09:53:43;;;;;;;;;;;22.20;99.90;;;;;;5110801;28;19926;-79
2021/07/25 09:56:16;;;;;;;;;;;22.20;99.90;;;;;;5108630;28;19919;-81
2021/07/25 09:58:43;;;;;;;;;;;22.00;99.90;;;;;;5115489;28;19916;-80
2021/07/25 10:01:09;;;;;;;;;;;21.70;99.90;;;;;;5103169;28;19927;-83
2021/07/25 10:03:35;;;;;;;;;;;21.50;99.90;;;;;;5115425;28;19915;-83
2021/07/25 10:06:21;;;;;;;;;;;21.50;99.90;;;;;;5083052;28;19922;-78
2021/07/25 10:08:46;;;;;;;;;;;21.60;99.90;;;;;;5115119;28;19924;-82
2021/07/25 10:11:19;;;;;;;;;;;21.60;99.90;;;;;;5114156;28;19941;-81
2021/07/25 10:13:46;;;;;;;;;;;21.70;99.90;;;;;;5114281;28;19926;-81
2021/07/25 10:16:16;;;;;;;;;;;21.80;99.90;;;;;;5114912;28;19927;-82
2021/07/25 10:18:43;;;;;;;;;;;22.10;99.90;;;;;;5101709;28;20024;-81
2021/07/25 10:21:09;;;;;;;;;;;22.30;99.90;;;;;;5102360;28;19920;-81
2021/07/25 10:23:40;;;;;;;;;;;22.40;99.90;;;;;;5096311;28;19916;-79
2021/07/25 10:26:06;;;;;;;;;;;22.40;99.90;;;;;;5084998;28;19962;-83
2021/07/25 10:28:32;;;;;;;;;;;22.50;99.90;;;;;;5114874;28;19976;-80
2021/07/25 10:31:02;;;;;;;;;;;22.80;99.90;;;;;;5107334;28;19931;-80
2021/07/25 10:33:28;;;;;;;;;;;22.90;99.90;;;;;;5096765;28;19916;-81
2021/07/25 10:35:57;;;;;;;;;;;23.10;99.90;;;;;;5115066;28;19950;-81
2021/07/25 10:38:23;;;;;;;;;;;23.20;99.90;;;;;;5115066;28;19962;-82
2021/07/25 10:40:49;;;;;;;;;;;23.30;99.90;;;;;;5086003;28;19920;-81
2021/07/25 10:43:20;;;;;;;;;;;23.20;99.90;;;;;;5086987;28;20373;-81
2021/07/25 10:46:04;;;;;;;;;;;23.30;99.90;;;;;;5094814;28;19919;-83
2021/07/25 10:48:30;;;;;;;;;;;23.50;99.90;;;;;;5092806;28;20388;-83
2021/07/25 10:51:09;;;;;;;;;;;23.50;99.90;;;;;;5092302;28;19924;-80
2021/07/25 10:53:35;;;;;;;;;;;23.70;99.90;;;;;;5088395;28;19944;-78
2021/07/25 10:56:00;;;;;;;;;;;24.00;99.90;;;;;;5086335;28;19963;-80
2021/07/25 10:58:27;;;;;;;;;;;24.30;99.90;;;;;;5073327;28;20271;-82
2021/07/25 11:00:54;;;;;;;;;;;24.40;99.90;;;;;;5082724;28;20396;-79
2021/07/25 11:03:26;;;;;;;;;;;24.40;99.90;;;;;;5085147;28;19955;-81
2021/07/25 11:06:07;;;;;;;;;;;24.60;99.90;;;;;;5088587;28;20353;-82
2021/07/25 11:08:37;;;;;;;;;;;24.70;99.90;;;;;;5083473;28;20368;-79
2021/07/25 11:11:21;;;;;;;;;;;24.80;99.90;;;;;;5089713;28;19956;-81
2021/07/25 11:13:47;;;;;;;;;;;25.00;99.90;;;;;;5092680;28;20018;-82
2021/07/25 11:16:28;;;;;;;;;;;25.20;99.90;;;;;;5092518;28;19963;-81
2021/07/25 11:18:54;;;;;;;;;;;25.40;99.90;;;;;;5093248;28;20014;-80
2021/07/25 11:21:36;;;;;;;;;;;25.50;99.90;;;;;;5092260;28;19927;-82
2021/07/25 11:24:23;;;;;;;;;;;25.30;99.90;;;;;;5092646;28;19986;-78
2021/07/25 11:26:49;;;;;;;;;;;25.30;99.90;;;;;;5093753;28;20006;-79
2021/07/25 11:29:16;;;;;;;;;;;25.40;99.90;;;;;;5079670;28;19924;-82
2021/07/25 11:31:44;;;;;;;;;;;25.40;99.90;;;;;;5080491;28;19920;-82
2021/07/25 11:34:11;;;;;;;;;;;25.40;99.90;;;;;;5079899;28;19920;-82
2021/07/25 11:36:37;;;;;;;;;;;25.50;99.90;;;;;;5093263;28;19916;-81
2021/07/25 11:39:03;;;;;;;;;;;25.50;99.90;;;;;;5096907;28;20387;-82
2021/07/25 11:41:30;;;;;;;;;;;25.30;99.90;;;;;;5113638;28;20381;-82
2021/07/25 11:44:11;;;;;;;;;;;24.80;99.90;;;;;;5095129;28;19916;-81
2021/07/25 11:46:41;;;;;;;;;;;24.60;99.90;;;;;;5124764;28;19915;-79
2021/07/25 11:49:19;;;;;;;;;;;24.40;99.90;;;;;;5102992;28;19926;-80
2021/07/25 11:51:45;;;;;;;;;;;24.20;99.90;;;;;;5089945;28;19959;-79
2021/07/25 11:54:12;;;;;;;;;;;24.20;99.90;;;;;;5093614;28;20322;-80
2021/07/25 11:56:50;;;;;;;;;;;24.20;99.90;;;;;;5112597;28;20285;-81
2021/07/25 11:59:17;;;;;;;;;;;24.20;99.90;;;;;;5100494;28;19919;-82
2021/07/25 12:01:42;;;;;;;;;;;24.30;99.90;;;;;;5100866;28;19964;-79
2021/07/25 12:04:22;;;;;;;;;;;24.20;99.90;;;;;;5094996;28;19915;-83
2021/07/25 12:06:57;;;;;;;;;;;24.20;99.90;;;;;;5094139;28;19916;-79
2021/07/25 12:09:23;;;;;;;;;;;24.20;99.90;;;;;;5096839;28;19924;-82
2021/07/25 12:11:58;;;;;;;;;;;24.30;99.90;;;;;;5118074;27;19930;-81
2021/07/25 12:14:27;;;;;;;;;;;24.30;99.90;;;;;;5094616;28;19916;-81
2021/07/25 12:16:53;;;;;;;;;;;24.40;99.90;;;;;;5101743;28;20307;-82
2021/07/25 12:19:20;;;;;;;;;;;24.40;99.90;;;;;;5095657;28;20423;-80
2021/07/25 12:21:47;;;;;;;;;;;24.30;99.90;;;;;;5113508;28;19915;-81
2021/07/25 12:24:29;;;;;;;;;;;24.30;99.90;;;;;;5092078;28;19923;-81
2021/07/25 12:26:55;;;;;;;;;;;24.40;99.90;;;;;;5101090;28;19965;-80
2021/07/25 12:29:33;;;;;;;;;;;24.60;99.90;;;;;;5111753;28;19920;-81
2021/07/25 12:32:00;;;;;;;;;;;24.80;99.90;;;;;;5077577;28;19928;-79
2021/07/25 12:34:25;;;;;;;;;;;25.10;99.90;;;;;;5102424;28;19923;-81
2021/07/25 12:36:51;;;;;;;;;;;25.40;99.90;;;;;;5110488;28;20307;-80
2021/07/25 12:39:17;;;;;;;;;;;25.70;99.90;;;;;;5103792;28;19946;-79
2021/07/25 12:41:43;;;;;;;;;;;25.90;99.90;;;;;;5082747;28;19915;-81
2021/07/25 12:44:09;;;;;;;;;;;26.00;99.90;;;;;;5094852;28;19926;-82
2021/07/25 12:46:34;;;;;;;;;;;26.10;99.90;;;;;;5091498;28;19923;-80
2021/07/25 12:49:04;;;;;;;;;;;26.10;99.90;;;;;;5094260;28;20408;-78
2021/07/25 12:51:42;;;;;;;;;;;26.10;99.90;;;;;;5109983;28;20015;-75
2021/07/25 12:54:07;;;;;;;;;;;26.10;99.90;;;;;;5100420;28;19920;-79
2021/07/25 12:56:33;;;;;;;;;;;26.20;99.90;;;;;;5096918;28;19916;-78
2021/07/25 12:59:01;;;;;;;;;;;26.40;99.90;;;;;;5094833;28;20020;-80
2021/07/25 13:04:07;;;;;;;;;;;27.50;99.90;;;;;;5112195;28;20391;-80
2021/07/25 13:06:43;;;;;;;;;;;28.00;99.90;;;;;;5100571;28;19916;-81
2021/07/25 13:09:08;;;;;;;;;;;28.40;99.90;;;;;;5093010;28;20372;-79
2021/07/25 13:11:38;;;;;;;;;;;28.80;99.90;;;;;;5104470;28;19920;-79
2021/07/25 13:14:04;;;;;;;;;;;29.10;99.90;;;;;;5106063;28;19931;-79
2021/07/25 13:16:30;;;;;;;;;;;29.10;99.90;;;;;;5112069;28;19939;-79
2021/07/25 13:18:57;;;;;;;;;;;29.00;99.90;;;;;;5111306;28;19920;-79
2021/07/25 13:21:23;;;;;;;;;;;29.00;99.90;;;;;;5111623;28;19927;-81
2021/07/25 13:23:48;;;;;;;;;;;28.80;99.60;;;;;;5112521;28;19915;-81
2021/07/25 13:26:17;;;;;;;;;;;28.70;99.90;;;;;;5111983;28;19927;-80
2021/07/25 13:28:43;;;;;;;;;;;28.70;99.90;;;;;;5098593;28;19916;-79
2021/07/25 13:31:09;;;;;;;;;;;28.70;99.60;;;;;;5102581;28;20039;-80
2021/07/25 13:33:36;;;;;;;;;;;28.70;99.60;;;;;;5074792;28;20366;-80
2021/07/25 13:36:07;;;;;;;;;;;28.80;99.90;;;;;;5085235;28;19915;-79
2021/07/25 13:38:33;;;;;;;;;;;29.10;99.90;;;;;;5111045;28;19915;-80
2021/07/25 13:40:59;;;;;;;;;;;29.30;99.90;;;;;;5101199;28;19965;-79
2021/07/25 13:43:25;;;;;;;;;;;29.10;99.90;;;;;;5107037;28;19924;-78
2021/07/25 13:46:01;;;;;;;;;;;28.80;99.90;;;;;;5083334;28;19915;-79
2021/07/25 13:48:31;;;;;;;;;;;28.20;99.90;;;;;;5089836;28;19919;-81
2021/07/25 13:50:57;;;;;;;;;;;27.70;99.90;;;;;;5111667;28;19924;-78
2021/07/25 13:53:23;;;;;;;;;;;27.30;99.90;;;;;;5099471;28;19919;-81
2021/07/25 13:55:48;;;;;;;;;;;27.30;99.90;;;;;;5112282;28;20023;-78
2021/07/25 13:58:14;;;;;;;;;;;27.80;99.90;;;;;;5128233;28;19982;-78
2021/07/25 14:00:40;;;;;;;;;;;28.40;99.90;;;;;;5115684;28;20293;-81
2021/07/25 14:03:05;;;;;;;;;;;29.00;99.90;;;;;;5108981;28;20311;-81
2021/07/25 14:05:35;;;;;;;;;;;29.50;99.90;;;;;;5093093;28;19968;-81
2021/07/25 14:08:02;;;;;;;;;;;29.70;99.90;;;;;;5112133;28;19922;-78
2021/07/25 14:10:28;;;;;;;;;;;29.40;98.70;;;;;;5096550;28;19986;-81
2021/07/25 14:12:54;;;;;;;;;;;29.10;99.90;;;;;;5115317;28;19977;-81
2021/07/25 14:15:20;;;;;;;;;;;29.10;99.90;;;;;;5096191;28;19922;-78
2021/07/25 14:17:46;;;;;;;;;;;29.00;99.90;;;;;;5108155;28;19916;-80
2021/07/25 14:20:14;;;;;;;;;;;28.80;99.90;;;;;;5101481;28;19922;-80
2021/07/25 14:22:41;;;;;;;;;;;28.80;99.90;;;;;;5107318;28;19915;-78